createdAt,value
2022-09-20T00:01:52.032Z,3.97
2022-09-20T00:06:55.432Z,2.03
2022-09-20T00:11:59.716Z,4.37
2022-09-20T00:17:04.965Z,2.47
2022-09-20T00:22:08.723Z,1.50
2022-09-20T00:27:12.507Z,1.63
2022-09-20T00:32:17.693Z,3.90
2022-09-20T00:37:21.156Z,1.57
2022-09-20T00:42:28.341Z,2.60
2022-09-20T00:47:42.011Z,2.37
2022-09-20T00:52:48.292Z,1.57
2022-09-20T00:57:52.471Z,2.27
2022-09-20T01:03:02.423Z,2.57
2022-09-20T01:08:06.781Z,2.93
2022-09-20T01:13:10.448Z,1.17
2022-09-20T01:18:16.468Z,0.50
2022-09-20T01:23:38.794Z,0.80
2022-09-20T01:28:47.776Z,1.77
2022-09-20T01:33:55.326Z,2.63
2022-09-20T01:39:10.837Z,2.50
2022-09-20T01:44:24.232Z,1.87
2022-09-20T01:49:36.426Z,2.40
2022-09-20T01:55:09.165Z,2.47
2022-09-20T02:00:17.775Z,1.00
2022-09-20T02:06:04.109Z,1.20
2022-09-20T02:11:17.754Z,1.33
2022-09-20T02:16:41.601Z,2.23
2022-09-20T02:21:54.514Z,1.70
2022-09-20T02:27:11.479Z,1.10
2022-09-20T02:32:30.391Z,2.30
2022-09-20T02:37:56.192Z,2.53
2022-09-20T02:43:09.109Z,1.50
2022-09-20T02:48:18.214Z,2.83
2022-09-20T02:53:38.275Z,1.87
2022-09-20T02:58:51.224Z,1.67
2022-09-20T03:04:12.152Z,2.63
2022-09-20T03:09:27.173Z,2.40
2022-09-20T03:14:37.869Z,1.80
2022-09-20T03:19:58.468Z,1.80
2022-09-20T03:25:21.677Z,2.07
2022-09-20T03:30:38.123Z,2.23
2022-09-20T03:35:58.683Z,2.93
2022-09-20T03:41:44.573Z,3.30
2022-09-20T03:46:50.230Z,2.20
2022-09-20T03:52:04.318Z,2.37
2022-09-20T03:57:30.283Z,2.97
2022-09-20T04:02:47.418Z,2.40
2022-09-20T04:08:02.324Z,2.27
2022-09-20T04:13:23.013Z,2.27
2022-09-20T04:18:37.789Z,3.13
2022-09-20T04:23:51.313Z,4.30
2022-09-20T04:29:02.044Z,4.27
2022-09-20T04:34:14.567Z,2.87
2022-09-20T04:39:29.938Z,4.27
2022-09-20T04:45:08.024Z,3.17
2022-09-20T04:50:44.570Z,2.90
2022-09-20T04:55:55.741Z,4.83
2022-09-20T05:01:22.261Z,3.43
2022-09-20T05:06:47.533Z,5.57
2022-09-20T05:12:09.758Z,5.10
2022-09-20T05:17:26.949Z,5.37
2022-09-20T05:23:11.414Z,4.57
2022-09-20T05:28:25.179Z,4.23
2022-09-20T05:33:35.238Z,4.17
2022-09-20T05:38:48.681Z,3.83
2022-09-20T05:43:58.851Z,3.83
2022-09-20T05:49:13.148Z,2.97
2022-09-20T05:54:29.649Z,6.70
2022-09-20T05:59:46.260Z,4.77
2022-09-20T06:05:00.090Z,4.70
2022-09-20T06:10:25.844Z,3.53
2022-09-20T06:15:39.353Z,4.30
2022-09-20T06:20:54.989Z,3.87
2022-09-20T06:26:03.939Z,3.83
2022-09-20T06:31:10.701Z,3.97
2022-09-20T06:36:36.801Z,3.40
2022-09-20T06:41:42.872Z,3.97
2022-09-20T06:46:49.411Z,5.47
2022-09-20T06:51:52.798Z,2.67
2022-09-20T06:56:56.218Z,5.23
2022-09-20T07:02:01.341Z,3.20
2022-09-20T07:07:09.512Z,3.77
2022-09-20T07:12:13.508Z,3.53
2022-09-20T07:17:18.336Z,2.93
2022-09-20T07:22:21.781Z,3.37
2022-09-20T07:27:29.078Z,3.37
2022-09-20T07:32:34.507Z,2.90
2022-09-20T07:37:41.387Z,2.73
2022-09-20T07:42:46.131Z,2.30
2022-09-20T07:47:51.168Z,5.50
2022-09-20T07:52:57.235Z,3.83
2022-09-20T07:58:00.645Z,4.03
2022-09-20T08:03:06.168Z,2.30
2022-09-20T08:08:09.745Z,1.87
2022-09-20T08:18:39.377Z,2.00
2022-09-20T08:23:44.726Z,1.93
2022-09-20T08:28:52.764Z,1.90
2022-09-20T08:33:58.272Z,4.10
2022-09-20T08:44:34.970Z,1.40
2022-09-20T08:49:46.192Z,2.60
2022-09-20T08:54:49.729Z,1.43
2022-09-20T08:59:53.165Z,1.20
2022-09-20T09:04:58.602Z,1.13
2022-09-20T09:10:03.143Z,1.00
2022-09-20T09:15:23.122Z,2.30
2022-09-20T09:20:28.509Z,1.07
2022-09-20T09:25:34.683Z,1.30
2022-09-20T09:30:40.269Z,1.00
2022-09-20T09:35:46.482Z,1.33
2022-09-20T09:40:55.606Z,0.70
2022-09-20T09:46:18.996Z,3.80
2022-09-20T09:51:26.054Z,2.03
2022-09-20T09:56:50.145Z,2.08
2022-09-20T10:01:59.766Z,0.80
2022-09-20T10:07:10.798Z,1.70
2022-09-20T10:12:37.679Z,1.50
2022-09-20T10:17:53.622Z,1.63
2022-09-20T10:28:50.478Z,7.43
2022-09-20T10:34:20.349Z,3.30
2022-09-20T10:39:28.253Z,1.45
2022-09-20T10:44:46.790Z,1.55
2022-09-20T10:50:05.614Z,1.50
2022-09-20T10:55:26.488Z,2.63
2022-09-20T11:00:44.760Z,1.65
2022-09-20T11:06:00.250Z,1.67
2022-09-20T11:11:10.520Z,0.88
2022-09-20T11:16:18.476Z,0.82
2022-09-20T11:21:27.904Z,1.42
2022-09-20T11:26:39.597Z,1.85
2022-09-20T11:31:47.427Z,1.15
2022-09-20T11:36:57.648Z,1.52
2022-09-20T11:42:05.298Z,1.73
2022-09-20T11:47:31.199Z,0.77
2022-09-20T11:52:59.961Z,2.88
2022-09-20T11:58:09.960Z,1.40
2022-09-20T12:03:27.142Z,4.10
2022-09-20T12:08:34.642Z,1.25
2022-09-20T12:13:42.122Z,0.90
2022-09-20T12:19:02.954Z,0.80
2022-09-20T12:24:22.556Z,0.47
2022-09-20T12:30:07.547Z,0.55
2022-09-20T12:36:01.424Z,1.40
2022-09-20T12:41:13.133Z,0.93
2022-09-20T12:46:29.293Z,1.40
2022-09-20T12:51:51.856Z,0.68
2022-09-20T12:56:56.744Z,1.45
2022-09-20T13:02:38.734Z,1.23
2022-09-20T13:07:45.795Z,2.97
2022-09-20T13:12:54.627Z,3.03
2022-09-20T13:18:02.717Z,2.30
2022-09-20T13:23:06.706Z,1.45
2022-09-20T13:28:23.028Z,1.35
2022-09-20T13:33:27.024Z,1.70
2022-09-20T13:38:32.785Z,3.42
2022-09-20T13:43:43.027Z,2.42
2022-09-20T13:48:48.750Z,1.77
2022-09-20T13:53:52.368Z,1.73
2022-09-20T13:58:59.066Z,1.45
2022-09-20T14:04:08.663Z,1.57
2022-09-20T14:09:22.636Z,2.40
2022-09-20T14:14:28.896Z,0.82
2022-09-20T14:19:37.384Z,2.10
2022-09-20T14:24:41.758Z,1.73
2022-09-20T14:29:48.032Z,1.13
2022-09-20T14:35:01.014Z,1.70
2022-09-20T14:40:08.817Z,1.10
2022-09-20T14:45:24.413Z,2.38
2022-09-20T14:50:31.481Z,1.27
2022-09-20T14:55:37.909Z,2.95
2022-09-20T15:00:52.398Z,1.10
2022-09-20T15:05:56.484Z,1.63
2022-09-20T15:11:01.641Z,2.87
2022-09-20T15:16:06.888Z,2.57
2022-09-20T15:21:11.033Z,3.23
2022-09-20T15:26:15.857Z,2.23
2022-09-20T15:31:21.250Z,3.07
2022-09-20T15:36:24.974Z,2.07
2022-09-20T15:41:31.269Z,1.53
2022-09-20T15:46:36.605Z,1.87
2022-09-20T15:51:40.393Z,2.67
2022-09-20T15:56:44.161Z,2.10
2022-09-20T16:01:48.976Z,2.73
2022-09-20T16:06:52.358Z,1.43
2022-09-20T16:11:58.926Z,1.40
2022-09-20T16:17:03.796Z,3.00
2022-09-20T16:22:07.551Z,4.73
2022-09-20T16:27:11.183Z,2.27
2022-09-20T16:32:15.973Z,2.43
2022-09-20T16:37:19.465Z,1.70
2022-09-20T16:42:23.693Z,2.70
2022-09-20T16:47:29.774Z,11.57
2022-09-20T16:52:33.181Z,22.97
2022-09-20T16:57:36.907Z,23.43
2022-09-20T17:02:47.106Z,10.40
2022-09-20T17:07:51.165Z,10.17
2022-09-20T17:12:58.102Z,11.40
2022-09-20T17:18:05.511Z,8.03
2022-09-20T17:23:09.472Z,17.27
2022-09-20T17:28:14.436Z,6.87
2022-09-20T17:33:19.217Z,6.53
2022-09-20T17:38:22.892Z,4.97
2022-09-20T17:43:27.326Z,4.03
2022-09-20T17:48:34.280Z,2.97
2022-09-20T17:53:38.236Z,2.13
2022-09-20T17:58:42.708Z,3.73
2022-09-20T18:03:49.793Z,2.43
2022-09-20T18:08:55.549Z,3.43
2022-09-20T18:13:59.143Z,2.40
2022-09-20T18:19:04.794Z,1.80
2022-09-20T18:24:11.421Z,1.50
2022-09-20T18:29:18.296Z,1.00
2022-09-20T18:34:25.102Z,1.47
2022-09-20T18:39:31.083Z,2.63
2022-09-20T18:44:34.720Z,1.43
2022-09-20T18:49:39.765Z,1.97
2022-09-20T18:54:43.483Z,1.73
2022-09-20T18:59:54.429Z,1.43
2022-09-20T19:05:14.250Z,1.60
2022-09-20T19:10:26.293Z,1.30
2022-09-20T19:15:41.568Z,1.40
2022-09-20T19:20:49.618Z,1.57
2022-09-20T19:26:02.609Z,1.93
2022-09-20T19:31:06.915Z,2.53
2022-09-20T19:36:13.472Z,2.27
2022-09-20T19:41:29.554Z,2.20
2022-09-20T19:46:44.829Z,2.07
2022-09-20T19:51:50.490Z,1.97
2022-09-20T19:56:57.210Z,3.93
2022-09-20T20:02:01.619Z,2.93
2022-09-20T20:07:15.633Z,1.77
2022-09-20T20:12:28.297Z,1.73
2022-09-20T20:17:46.456Z,1.33
2022-09-20T20:23:19.328Z,1.13
2022-09-20T20:28:22.833Z,2.70
2022-09-20T20:33:26.986Z,1.37
2022-09-20T20:38:36.973Z,3.77
2022-09-20T20:43:42.336Z,1.67
2022-09-20T20:48:46.175Z,1.23
2022-09-20T20:53:53.104Z,2.40
2022-09-20T20:59:00.930Z,2.10
2022-09-20T21:04:07.937Z,1.10
2022-09-20T21:09:13.628Z,0.70
2022-09-20T21:14:17.365Z,0.97
2022-09-20T21:19:23.982Z,1.83
2022-09-20T21:24:28.792Z,3.43
2022-09-20T21:29:32.648Z,1.73
2022-09-20T21:34:36.384Z,1.77
2022-09-20T21:39:41.508Z,2.07
2022-09-20T21:44:45.167Z,1.60
2022-09-20T21:49:48.632Z,1.60
2022-09-20T21:54:53.407Z,1.67
2022-09-20T21:59:56.795Z,1.90
2022-09-20T22:05:00.452Z,1.93
2022-09-20T22:10:05.877Z,2.97
2022-09-20T22:15:10.863Z,3.20
2022-09-20T22:20:14.521Z,2.13
2022-09-20T22:25:19.598Z,2.50
2022-09-20T22:30:23.007Z,3.90
2022-09-20T22:35:26.413Z,3.13
2022-09-20T22:40:31.574Z,4.23
2022-09-20T22:45:35.088Z,10.93
2022-09-20T22:50:38.806Z,4.60
2022-09-20T22:55:43.567Z,3.87
2022-09-20T23:00:46.976Z,5.10
2022-09-20T23:05:50.658Z,5.77
2022-09-20T23:11:03.024Z,5.23
2022-09-20T23:16:14.455Z,4.87
2022-09-20T23:21:19.285Z,4.27
2022-09-20T23:26:25.536Z,5.80
2022-09-20T23:31:30.142Z,3.80
2022-09-20T23:36:35.733Z,3.90
2022-09-20T23:41:41.521Z,3.53
2022-09-20T23:46:45.138Z,3.30
2022-09-20T23:51:48.617Z,3.83
2022-09-20T23:56:53.378Z,6.33
